sensor_id;sensor_type;location;lat;lon;timestamp;P1;durP1;ratioP1;P2;durP2;ratioP2
462;SDS011;218;51.902;9.542;2022-12-29T00:00:02;4.43;;;4.07;;
462;SDS011;218;51.902;9.542;2022-12-29T00:02:30;5.70;;;2.83;;
462;SDS011;218;51.902;9.542;2022-12-29T00:04:57;2.97;;;2.77;;
462;SDS011;218;51.902;9.542;2022-12-29T00:07:25;2.90;;;2.70;;
462;SDS011;218;51.902;9.542;2022-12-29T00:09:53;3.20;;;3.00;;
462;SDS011;218;51.902;9.542;2022-12-29T00:12:20;3.00;;;2.80;;
462;SDS011;218;51.902;9.542;2022-12-29T00:14:47;2.63;;;2.43;;
462;SDS011;218;51.902;9.542;2022-12-29T00:17:32;2.90;;;2.80;;
462;SDS011;218;51.902;9.542;2022-12-29T00:19:59;3.33;;;3.03;;
462;SDS011;218;51.902;9.542;2022-12-29T00:22:45;3.97;;;3.67;;
462;SDS011;218;51.902;9.542;2022-12-29T00:25:30;2.73;;;2.63;;
462;SDS011;218;51.902;9.542;2022-12-29T00:28:26;3.77;;;3.47;;
462;SDS011;218;51.902;9.542;2022-12-29T00:31:11;3.83;;;3.13;;
462;SDS011;218;51.902;9.542;2022-12-29T00:33:56;3.03;;;2.93;;
462;SDS011;218;51.902;9.542;2022-12-29T00:36:38;3.00;;;2.87;;
462;SDS011;218;51.902;9.542;2022-12-29T00:39:09;2.77;;;2.57;;
462;SDS011;218;51.902;9.542;2022-12-29T00:41:54;3.43;;;3.10;;
462;SDS011;218;51.902;9.542;2022-12-29T00:44:50;3.20;;;3.00;;
462;SDS011;218;51.902;9.542;2022-12-29T00:47:18;3.70;;;3.27;;
462;SDS011;218;51.902;9.542;2022-12-29T00:49:45;3.87;;;3.43;;
462;SDS011;218;51.902;9.542;2022-12-29T00:52:11;3.37;;;3.17;;
462;SDS011;218;51.902;9.542;2022-12-29T00:54:40;3.07;;;2.87;;
462;SDS011;218;51.902;9.542;2022-12-29T00:57:10;3.80;;;3.43;;
462;SDS011;218;51.902;9.542;2022-12-29T00:59:37;3.60;;;3.40;;
462;SDS011;218;51.902;9.542;2022-12-29T01:02:05;3.20;;;3.00;;
462;SDS011;218;51.902;9.542;2022-12-29T01:04:32;3.13;;;2.93;;
462;SDS011;218;51.902;9.542;2022-12-29T01:06:59;3.30;;;3.10;;
462;SDS011;218;51.902;9.542;2022-12-29T01:09:27;3.50;;;3.20;;
462;SDS011;218;51.902;9.542;2022-12-29T01:12:12;3.27;;;3.07;;
462;SDS011;218;51.902;9.542;2022-12-29T01:14:40;3.17;;;2.97;;
462;SDS011;218;51.902;9.542;2022-12-29T01:17:07;3.40;;;3.20;;
462;SDS011;218;51.902;9.542;2022-12-29T01:19:34;2.87;;;2.77;;
462;SDS011;218;51.902;9.542;2022-12-29T01:22:02;3.30;;;3.10;;
462;SDS011;218;51.902;9.542;2022-12-29T01:24:29;3.90;;;3.20;;
462;SDS011;218;51.902;9.542;2022-12-29T01:26:56;3.17;;;2.97;;
462;SDS011;218;51.902;9.542;2022-12-29T01:29:24;3.00;;;2.90;;
462;SDS011;218;51.902;9.542;2022-12-29T01:31:52;3.50;;;3.20;;
462;SDS011;218;51.902;9.542;2022-12-29T01:34:19;3.00;;;2.77;;
462;SDS011;218;51.902;9.542;2022-12-29T01:36:46;2.90;;;2.70;;
462;SDS011;218;51.902;9.542;2022-12-29T01:39:13;3.50;;;3.20;;
462;SDS011;218;51.902;9.542;2022-12-29T01:41:40;3.37;;;3.17;;
462;SDS011;218;51.902;9.542;2022-12-29T01:46:55;3.73;;;3.43;;
462;SDS011;218;51.902;9.542;2022-12-29T01:49:22;2.80;;;2.70;;
462;SDS011;218;51.902;9.542;2022-12-29T01:51:55;3.23;;;3.03;;
462;SDS011;218;51.902;9.542;2022-12-29T01:54:23;4.50;;;4.30;;
462;SDS011;218;51.902;9.542;2022-12-29T01:56:52;3.70;;;3.43;;
462;SDS011;218;51.902;9.542;2022-12-29T01:59:20;4.23;;;2.90;;
462;SDS011;218;51.902;9.542;2022-12-29T02:01:50;3.17;;;2.90;;
462;SDS011;218;51.902;9.542;2022-12-29T02:04:19;2.67;;;2.47;;
462;SDS011;218;51.902;9.542;2022-12-29T02:06:47;4.13;;;2.50;;
462;SDS011;218;51.902;9.542;2022-12-29T02:09:16;2.40;;;2.20;;
462;SDS011;218;51.902;9.542;2022-12-29T02:11:43;3.23;;;2.93;;
462;SDS011;218;51.902;9.542;2022-12-29T02:14:11;2.77;;;2.60;;
462;SDS011;218;51.902;9.542;2022-12-29T02:16:40;2.97;;;2.77;;
462;SDS011;218;51.902;9.542;2022-12-29T02:22:38;2.77;;;2.57;;
462;SDS011;218;51.902;9.542;2022-12-29T02:25:23;2.80;;;2.60;;
462;SDS011;218;51.902;9.542;2022-12-29T02:28:01;3.13;;;2.93;;
462;SDS011;218;51.902;9.542;2022-12-29T02:30:46;2.50;;;2.40;;
462;SDS011;218;51.902;9.542;2022-12-29T02:33:28;2.53;;;2.43;;
462;SDS011;218;51.902;9.542;2022-12-29T02:36:06;3.60;;;2.57;;
462;SDS011;218;51.902;9.542;2022-12-29T02:38:42;1.97;;;1.87;;
462;SDS011;218;51.902;9.542;2022-12-29T02:41:15;3.27;;;2.57;;
462;SDS011;218;51.902;9.542;2022-12-29T02:43:47;2.53;;;2.40;;
462;SDS011;218;51.902;9.542;2022-12-29T02:46:19;2.40;;;2.30;;
462;SDS011;218;51.902;9.542;2022-12-29T02:48:50;2.70;;;2.50;;
462;SDS011;218;51.902;9.542;2022-12-29T02:51:20;2.20;;;2.00;;
462;SDS011;218;51.902;9.542;2022-12-29T02:53:52;2.53;;;2.43;;
462;SDS011;218;51.902;9.542;2022-12-29T02:56:37;2.93;;;2.77;;
462;SDS011;218;51.902;9.542;2022-12-29T02:59:05;2.20;;;2.10;;
462;SDS011;218;51.902;9.542;2022-12-29T03:01:36;2.70;;;2.50;;
462;SDS011;218;51.902;9.542;2022-12-29T03:04:26;2.47;;;2.27;;
462;SDS011;218;51.902;9.542;2022-12-29T03:06:59;2.57;;;2.40;;
462;SDS011;218;51.902;9.542;2022-12-29T03:09:35;2.30;;;2.20;;
462;SDS011;218;51.902;9.542;2022-12-29T03:12:07;2.10;;;2.00;;
462;SDS011;218;51.902;9.542;2022-12-29T03:14:48;2.73;;;2.63;;
462;SDS011;218;51.902;9.542;2022-12-29T03:17:43;2.27;;;2.17;;
462;SDS011;218;51.902;9.542;2022-12-29T03:20:16;2.40;;;2.30;;
462;SDS011;218;51.902;9.542;2022-12-29T03:22:48;2.00;;;1.90;;
462;SDS011;218;51.902;9.542;2022-12-29T03:25:18;2.67;;;2.47;;
462;SDS011;218;51.902;9.542;2022-12-29T03:27:50;2.30;;;2.20;;
462;SDS011;218;51.902;9.542;2022-12-29T03:30:18;2.70;;;2.50;;
462;SDS011;218;51.902;9.542;2022-12-29T03:32:49;2.40;;;2.30;;
462;SDS011;218;51.902;9.542;2022-12-29T03:35:18;2.20;;;2.10;;
462;SDS011;218;51.902;9.542;2022-12-29T03:37:50;2.10;;;2.00;;
462;SDS011;218;51.902;9.542;2022-12-29T03:40:21;2.60;;;2.50;;
462;SDS011;218;51.902;9.542;2022-12-29T03:42:50;2.30;;;2.20;;
462;SDS011;218;51.902;9.542;2022-12-29T03:45:18;2.43;;;2.23;;
462;SDS011;218;51.902;9.542;2022-12-29T03:47:46;2.20;;;2.10;;
462;SDS011;218;51.902;9.542;2022-12-29T03:50:14;2.70;;;2.10;;
462;SDS011;218;51.902;9.542;2022-12-29T03:52:41;2.60;;;2.50;;
462;SDS011;218;51.902;9.542;2022-12-29T03:55:08;2.00;;;1.90;;
462;SDS011;218;51.902;9.542;2022-12-29T03:57:35;3.33;;;2.37;;
462;SDS011;218;51.902;9.542;2022-12-29T04:00:03;2.83;;;2.07;;
462;SDS011;218;51.902;9.542;2022-12-29T04:02:31;2.53;;;2.10;;
462;SDS011;218;51.902;9.542;2022-12-29T04:04:59;1.97;;;1.87;;
462;SDS011;218;51.902;9.542;2022-12-29T04:07:26;1.80;;;1.70;;
462;SDS011;218;51.902;9.542;2022-12-29T04:09:54;2.20;;;2.10;;
462;SDS011;218;51.902;9.542;2022-12-29T04:12:21;2.50;;;2.30;;
462;SDS011;218;51.902;9.542;2022-12-29T04:14:48;2.00;;;1.90;;
462;SDS011;218;51.902;9.542;2022-12-29T04:17:15;1.50;;;1.50;;
462;SDS011;218;51.902;9.542;2022-12-29T04:19:42;1.83;;;1.73;;
462;SDS011;218;51.902;9.542;2022-12-29T04:22:11;2.13;;;2.00;;
462;SDS011;218;51.902;9.542;2022-12-29T04:24:38;1.93;;;1.83;;
462;SDS011;218;51.902;9.542;2022-12-29T04:27:05;1.70;;;1.60;;
462;SDS011;218;51.902;9.542;2022-12-29T04:29:32;2.10;;;2.00;;
462;SDS011;218;51.902;9.542;2022-12-29T04:31:59;2.00;;;1.90;;
462;SDS011;218;51.902;9.542;2022-12-29T04:34:26;1.93;;;1.70;;
462;SDS011;218;51.902;9.542;2022-12-29T04:36:54;2.00;;;1.80;;
462;SDS011;218;51.902;9.542;2022-12-29T04:39:22;2.40;;;1.73;;
462;SDS011;218;51.902;9.542;2022-12-29T04:41:49;1.80;;;1.70;;
462;SDS011;218;51.902;9.542;2022-12-29T04:44:16;2.60;;;1.83;;
462;SDS011;218;51.902;9.542;2022-12-29T04:46:44;1.80;;;1.70;;
462;SDS011;218;51.902;9.542;2022-12-29T04:49:11;2.00;;;1.90;;
462;SDS011;218;51.902;9.542;2022-12-29T04:51:38;1.70;;;1.60;;
462;SDS011;218;51.902;9.542;2022-12-29T04:54:05;2.10;;;2.00;;
462;SDS011;218;51.902;9.542;2022-12-29T04:56:34;2.33;;;1.83;;
462;SDS011;218;51.902;9.542;2022-12-29T04:59:01;2.97;;;2.10;;
462;SDS011;218;51.902;9.542;2022-12-29T05:01:28;1.60;;;1.60;;
462;SDS011;218;51.902;9.542;2022-12-29T05:03:55;1.50;;;1.40;;
462;SDS011;218;51.902;9.542;2022-12-29T05:06:22;1.77;;;1.67;;
462;SDS011;218;51.902;9.542;2022-12-29T05:08:49;1.60;;;1.50;;
462;SDS011;218;51.902;9.542;2022-12-29T05:11:17;1.80;;;1.70;;
462;SDS011;218;51.902;9.542;2022-12-29T05:13:46;2.93;;;1.80;;
462;SDS011;218;51.902;9.542;2022-12-29T05:16:13;1.50;;;1.40;;
462;SDS011;218;51.902;9.542;2022-12-29T05:18:40;2.00;;;1.90;;
462;SDS011;218;51.902;9.542;2022-12-29T05:21:07;1.60;;;1.50;;
462;SDS011;218;51.902;9.542;2022-12-29T05:23:34;1.70;;;1.60;;
462;SDS011;218;51.902;9.542;2022-12-29T05:26:01;1.80;;;1.70;;
462;SDS011;218;51.902;9.542;2022-12-29T05:28:29;1.67;;;1.57;;
462;SDS011;218;51.902;9.542;2022-12-29T05:30:57;1.50;;;1.50;;
462;SDS011;218;51.902;9.542;2022-12-29T05:33:24;1.63;;;1.53;;
462;SDS011;218;51.902;9.542;2022-12-29T05:35:51;1.60;;;1.50;;
462;SDS011;218;51.902;9.542;2022-12-29T05:38:19;1.60;;;1.60;;
462;SDS011;218;51.902;9.542;2022-12-29T05:40:46;1.77;;;1.60;;
462;SDS011;218;51.902;9.542;2022-12-29T05:43:13;3.93;;;1.50;;
462;SDS011;218;51.902;9.542;2022-12-29T05:45:40;1.87;;;1.77;;
462;SDS011;218;51.902;9.542;2022-12-29T05:48:09;1.40;;;1.40;;
462;SDS011;218;51.902;9.542;2022-12-29T05:50:36;1.60;;;1.50;;
462;SDS011;218;51.902;9.542;2022-12-29T05:53:03;2.50;;;1.60;;
462;SDS011;218;51.902;9.542;2022-12-29T05:55:30;2.53;;;1.73;;
462;SDS011;218;51.902;9.542;2022-12-29T05:57:57;1.60;;;1.50;;
462;SDS011;218;51.902;9.542;2022-12-29T06:00:25;1.47;;;1.47;;
462;SDS011;218;51.902;9.542;2022-12-29T06:02:52;1.53;;;1.43;;
462;SDS011;218;51.902;9.542;2022-12-29T06:05:20;2.03;;;1.93;;
462;SDS011;218;51.902;9.542;2022-12-29T06:07:47;1.33;;;1.33;;
462;SDS011;218;51.902;9.542;2022-12-29T06:10:14;1.50;;;1.40;;
462;SDS011;218;51.902;9.542;2022-12-29T06:12:41;1.70;;;1.60;;
462;SDS011;218;51.902;9.542;2022-12-29T06:15:09;1.10;;;1.10;;
462;SDS011;218;51.902;9.542;2022-12-29T06:17:37;1.47;;;1.47;;
462;SDS011;218;51.902;9.542;2022-12-29T06:20:04;1.30;;;1.20;;
462;SDS011;218;51.902;9.542;2022-12-29T06:22:33;1.43;;;1.43;;
462;SDS011;218;51.902;9.542;2022-12-29T06:25:00;1.33;;;1.30;;
462;SDS011;218;51.902;9.542;2022-12-29T06:27:28;1.57;;;1.50;;
462;SDS011;218;51.902;9.542;2022-12-29T06:29:55;1.40;;;1.40;;
462;SDS011;218;51.902;9.542;2022-12-29T06:32:22;1.20;;;1.20;;
462;SDS011;218;51.902;9.542;2022-12-29T06:34:49;1.50;;;1.40;;
462;SDS011;218;51.902;9.542;2022-12-29T06:37:16;1.20;;;1.20;;
462;SDS011;218;51.902;9.542;2022-12-29T06:39:45;1.40;;;1.40;;
462;SDS011;218;51.902;9.542;2022-12-29T06:42:12;1.73;;;1.63;;
462;SDS011;218;51.902;9.542;2022-12-29T06:44:39;1.67;;;1.57;;
462;SDS011;218;51.902;9.542;2022-12-29T06:47:06;1.83;;;1.73;;
462;SDS011;218;51.902;9.542;2022-12-29T06:49:33;1.30;;;1.30;;
462;SDS011;218;51.902;9.542;2022-12-29T06:52:01;1.60;;;1.47;;
462;SDS011;218;51.902;9.542;2022-12-29T06:54:29;1.40;;;1.30;;
462;SDS011;218;51.902;9.542;2022-12-29T06:56:58;1.40;;;1.40;;
462;SDS011;218;51.902;9.542;2022-12-29T06:59:25;1.63;;;1.53;;
462;SDS011;218;51.902;9.542;2022-12-29T07:01:52;1.40;;;1.40;;
462;SDS011;218;51.902;9.542;2022-12-29T07:04:20;1.50;;;1.50;;
462;SDS011;218;51.902;9.542;2022-12-29T07:06:47;1.70;;;1.60;;
462;SDS011;218;51.902;9.542;2022-12-29T07:09:14;1.60;;;1.60;;
462;SDS011;218;51.902;9.542;2022-12-29T07:11:41;1.57;;;1.57;;
462;SDS011;218;51.902;9.542;2022-12-29T07:14:11;1.63;;;1.63;;
462;SDS011;218;51.902;9.542;2022-12-29T07:16:38;1.97;;;1.50;;
462;SDS011;218;51.902;9.542;2022-12-29T07:19:05;1.50;;;1.50;;
462;SDS011;218;51.902;9.542;2022-12-29T07:21:32;1.97;;;1.50;;
462;SDS011;218;51.902;9.542;2022-12-29T07:23:59;1.13;;;1.13;;
462;SDS011;218;51.902;9.542;2022-12-29T07:26:27;1.40;;;1.27;;
462;SDS011;218;51.902;9.542;2022-12-29T07:28:54;1.60;;;1.60;;
462;SDS011;218;51.902;9.542;2022-12-29T07:31:23;1.53;;;1.50;;
462;SDS011;218;51.902;9.542;2022-12-29T07:33:50;1.40;;;1.40;;
462;SDS011;218;51.902;9.542;2022-12-29T07:36:17;1.97;;;1.87;;
462;SDS011;218;51.902;9.542;2022-12-29T07:38:44;1.60;;;1.60;;
462;SDS011;218;51.902;9.542;2022-12-29T07:41:11;1.60;;;1.50;;
462;SDS011;218;51.902;9.542;2022-12-29T07:43:38;1.83;;;1.83;;
462;SDS011;218;51.902;9.542;2022-12-29T07:46:05;1.80;;;1.70;;
462;SDS011;218;51.902;9.542;2022-12-29T07:48:35;1.80;;;1.70;;
462;SDS011;218;51.902;9.542;2022-12-29T07:51:02;1.70;;;1.60;;
462;SDS011;218;51.902;9.542;2022-12-29T07:53:29;1.47;;;1.47;;
462;SDS011;218;51.902;9.542;2022-12-29T07:55:56;1.73;;;1.60;;
462;SDS011;218;51.902;9.542;2022-12-29T07:58:23;1.57;;;1.57;;
462;SDS011;218;51.902;9.542;2022-12-29T08:00:52;1.83;;;1.73;;
462;SDS011;218;51.902;9.542;2022-12-29T08:03:20;2.60;;;1.80;;
462;SDS011;218;51.902;9.542;2022-12-29T08:05:48;1.60;;;1.57;;
462;SDS011;218;51.902;9.542;2022-12-29T08:08:15;1.20;;;1.20;;
462;SDS011;218;51.902;9.542;2022-12-29T08:10:42;1.80;;;1.70;;
462;SDS011;218;51.902;9.542;2022-12-29T08:13:10;1.50;;;1.50;;
462;SDS011;218;51.902;9.542;2022-12-29T08:15:37;1.50;;;1.40;;
462;SDS011;218;51.902;9.542;2022-12-29T08:18:04;1.67;;;1.67;;
462;SDS011;218;51.902;9.542;2022-12-29T08:20:32;1.50;;;1.50;;
462;SDS011;218;51.902;9.542;2022-12-29T08:23:00;3.37;;;3.17;;
462;SDS011;218;51.902;9.542;2022-12-29T08:25:27;1.57;;;1.50;;
462;SDS011;218;51.902;9.542;2022-12-29T08:27:56;1.40;;;1.40;;
462;SDS011;218;51.902;9.542;2022-12-29T08:30:23;1.50;;;1.40;;
462;SDS011;218;51.902;9.542;2022-12-29T08:32:50;1.43;;;1.30;;
462;SDS011;218;51.902;9.542;2022-12-29T08:35:17;1.30;;;1.30;;
462;SDS011;218;51.902;9.542;2022-12-29T08:37:45;1.50;;;1.47;;
462;SDS011;218;51.902;9.542;2022-12-29T08:40:13;1.30;;;1.30;;
462;SDS011;218;51.902;9.542;2022-12-29T08:42:40;1.30;;;1.30;;
462;SDS011;218;51.902;9.542;2022-12-29T08:45:08;1.67;;;1.53;;
462;SDS011;218;51.902;9.542;2022-12-29T08:47:35;2.60;;;1.60;;
462;SDS011;218;51.902;9.542;2022-12-29T08:50:02;1.70;;;1.70;;
462;SDS011;218;51.902;9.542;2022-12-29T08:52:29;1.37;;;1.37;;
462;SDS011;218;51.902;9.542;2022-12-29T08:54:57;1.33;;;1.33;;
462;SDS011;218;51.902;9.542;2022-12-29T08:57:25;1.70;;;1.60;;
462;SDS011;218;51.902;9.542;2022-12-29T08:59:52;1.50;;;1.40;;
462;SDS011;218;51.902;9.542;2022-12-29T09:02:19;1.53;;;1.50;;
462;SDS011;218;51.902;9.542;2022-12-29T09:04:46;1.30;;;1.30;;
462;SDS011;218;51.902;9.542;2022-12-29T09:07:13;1.30;;;1.30;;
462;SDS011;218;51.902;9.542;2022-12-29T09:09:41;1.30;;;1.30;;
462;SDS011;218;51.902;9.542;2022-12-29T09:12:07;1.70;;;1.60;;
462;SDS011;218;51.902;9.542;2022-12-29T09:14:36;1.50;;;1.40;;
462;SDS011;218;51.902;9.542;2022-12-29T09:17:03;1.90;;;1.80;;
462;SDS011;218;51.902;9.542;2022-12-29T09:19:48;2.90;;;1.40;;
462;SDS011;218;51.902;9.542;2022-12-29T09:22:16;1.63;;;1.53;;
462;SDS011;218;51.902;9.542;2022-12-29T09:24:43;1.70;;;1.67;;
462;SDS011;218;51.902;9.542;2022-12-29T09:27:10;1.60;;;1.50;;
462;SDS011;218;51.902;9.542;2022-12-29T09:29:39;1.97;;;1.87;;
462;SDS011;218;51.902;9.542;2022-12-29T09:32:06;1.77;;;1.67;;
462;SDS011;218;51.902;9.542;2022-12-29T09:34:33;2.07;;;1.80;;
462;SDS011;218;51.902;9.542;2022-12-29T09:37:00;1.57;;;1.47;;
462;SDS011;218;51.902;9.542;2022-12-29T09:39:27;1.90;;;1.47;;
462;SDS011;218;51.902;9.542;2022-12-29T09:41:57;1.40;;;1.40;;
462;SDS011;218;51.902;9.542;2022-12-29T09:44:31;1.70;;;1.60;;
462;SDS011;218;51.902;9.542;2022-12-29T09:47:06;1.60;;;1.53;;
462;SDS011;218;51.902;9.542;2022-12-29T09:49:39;1.47;;;1.47;;
462;SDS011;218;51.902;9.542;2022-12-29T09:52:12;1.60;;;1.50;;
462;SDS011;218;51.902;9.542;2022-12-29T09:54:43;1.60;;;1.50;;
462;SDS011;218;51.902;9.542;2022-12-29T09:57:18;1.40;;;1.40;;
462;SDS011;218;51.902;9.542;2022-12-29T09:59:50;1.60;;;1.53;;
462;SDS011;218;51.902;9.542;2022-12-29T10:02:23;1.40;;;1.40;;
462;SDS011;218;51.902;9.542;2022-12-29T10:04:57;1.40;;;1.40;;
462;SDS011;218;51.902;9.542;2022-12-29T10:07:26;1.20;;;1.20;;
462;SDS011;218;51.902;9.542;2022-12-29T10:09:56;1.80;;;1.70;;
462;SDS011;218;51.902;9.542;2022-12-29T10:12:27;1.40;;;1.30;;
462;SDS011;218;51.902;9.542;2022-12-29T10:14:58;2.13;;;1.67;;
462;SDS011;218;51.902;9.542;2022-12-29T10:17:35;2.03;;;1.87;;
462;SDS011;218;51.902;9.542;2022-12-29T10:20:14;1.53;;;1.37;;
462;SDS011;218;51.902;9.542;2022-12-29T10:22:54;1.37;;;1.37;;
462;SDS011;218;51.902;9.542;2022-12-29T10:25:26;1.47;;;1.47;;
462;SDS011;218;51.902;9.542;2022-12-29T10:27:53;1.47;;;1.37;;
462;SDS011;218;51.902;9.542;2022-12-29T10:30:22;2.80;;;2.70;;
462;SDS011;218;51.902;9.542;2022-12-29T10:32:52;2.43;;;2.23;;
462;SDS011;218;51.902;9.542;2022-12-29T10:35:21;2.80;;;2.63;;
462;SDS011;218;51.902;9.542;2022-12-29T10:37:51;2.17;;;2.07;;
462;SDS011;218;51.902;9.542;2022-12-29T10:40:22;2.20;;;2.10;;
462;SDS011;218;51.902;9.542;2022-12-29T10:42:50;1.80;;;1.67;;
462;SDS011;218;51.902;9.542;2022-12-29T10:45:18;1.97;;;1.77;;
462;SDS011;218;51.902;9.542;2022-12-29T10:47:49;1.50;;;1.40;;
462;SDS011;218;51.902;9.542;2022-12-29T10:50:21;2.27;;;2.17;;
462;SDS011;218;51.902;9.542;2022-12-29T10:52:49;2.30;;;2.10;;
462;SDS011;218;51.902;9.542;2022-12-29T10:55:17;2.20;;;1.70;;
462;SDS011;218;51.902;9.542;2022-12-29T10:57:46;1.90;;;1.80;;
462;SDS011;218;51.902;9.542;2022-12-29T11:00:15;1.97;;;1.90;;
462;SDS011;218;51.902;9.542;2022-12-29T11:02:59;1.43;;;1.43;;
462;SDS011;218;51.902;9.542;2022-12-29T11:05:29;2.10;;;1.57;;
462;SDS011;218;51.902;9.542;2022-12-29T11:08:03;1.80;;;1.70;;
462;SDS011;218;51.902;9.542;2022-12-29T11:10:36;2.50;;;1.83;;
462;SDS011;218;51.902;9.542;2022-12-29T11:13:10;1.90;;;1.80;;
462;SDS011;218;51.902;9.542;2022-12-29T11:15:38;2.17;;;1.97;;
462;SDS011;218;51.902;9.542;2022-12-29T11:18:08;5.70;;;2.07;;
462;SDS011;218;51.902;9.542;2022-12-29T11:20:44;1.70;;;1.60;;
462;SDS011;218;51.902;9.542;2022-12-29T11:23:21;2.00;;;1.80;;
462;SDS011;218;51.902;9.542;2022-12-29T11:26:05;2.40;;;1.63;;
462;SDS011;218;51.902;9.542;2022-12-29T11:28:34;3.70;;;2.77;;
462;SDS011;218;51.902;9.542;2022-12-29T11:31:02;3.20;;;3.00;;
462;SDS011;218;51.902;9.542;2022-12-29T11:33:33;2.90;;;2.80;;
462;SDS011;218;51.902;9.542;2022-12-29T11:36:02;5.53;;;3.90;;
462;SDS011;218;51.902;9.542;2022-12-29T11:38:33;2.80;;;2.70;;
462;SDS011;218;51.902;9.542;2022-12-29T11:41:01;2.63;;;2.40;;
462;SDS011;218;51.902;9.542;2022-12-29T11:43:30;2.17;;;2.07;;
462;SDS011;218;51.902;9.542;2022-12-29T11:45:59;2.77;;;2.30;;
462;SDS011;218;51.902;9.542;2022-12-29T11:48:29;2.47;;;2.37;;
462;SDS011;218;51.902;9.542;2022-12-29T11:50:58;3.03;;;2.83;;
462;SDS011;218;51.902;9.542;2022-12-29T11:53:26;3.00;;;2.80;;
462;SDS011;218;51.902;9.542;2022-12-29T11:55:59;2.47;;;2.30;;
462;SDS011;218;51.902;9.542;2022-12-29T11:58:30;3.50;;;3.13;;
462;SDS011;218;51.902;9.542;2022-12-29T12:00:58;3.50;;;3.30;;
462;SDS011;218;51.902;9.542;2022-12-29T12:03:27;2.70;;;2.60;;
462;SDS011;218;51.902;9.542;2022-12-29T12:06:00;3.50;;;3.30;;
462;SDS011;218;51.902;9.542;2022-12-29T12:08:31;4.27;;;3.47;;
462;SDS011;218;51.902;9.542;2022-12-29T12:11:03;2.23;;;2.13;;
462;SDS011;218;51.902;9.542;2022-12-29T12:13:34;3.60;;;2.60;;
462;SDS011;218;51.902;9.542;2022-12-29T12:16:04;2.67;;;1.97;;
462;SDS011;218;51.902;9.542;2022-12-29T12:18:34;2.07;;;1.97;;
462;SDS011;218;51.902;9.542;2022-12-29T12:21:07;4.77;;;4.00;;
462;SDS011;218;51.902;9.542;2022-12-29T12:23:41;4.30;;;4.00;;
462;SDS011;218;51.902;9.542;2022-12-29T12:26:11;3.30;;;3.00;;
462;SDS011;218;51.902;9.542;2022-12-29T12:28:41;4.30;;;3.30;;
462;SDS011;218;51.902;9.542;2022-12-29T12:31:17;2.20;;;2.10;;
462;SDS011;218;51.902;9.542;2022-12-29T12:33:46;4.27;;;2.80;;
462;SDS011;218;51.902;9.542;2022-12-29T12:36:20;2.60;;;2.40;;
462;SDS011;218;51.902;9.542;2022-12-29T12:38:51;3.83;;;3.63;;
462;SDS011;218;51.902;9.542;2022-12-29T12:41:23;3.73;;;3.43;;
462;SDS011;218;51.902;9.542;2022-12-29T12:43:53;3.27;;;3.00;;
462;SDS011;218;51.902;9.542;2022-12-29T12:46:30;3.27;;;3.00;;
462;SDS011;218;51.902;9.542;2022-12-29T12:49:06;3.53;;;2.00;;
462;SDS011;218;51.902;9.542;2022-12-29T12:51:42;3.70;;;2.20;;
462;SDS011;218;51.902;9.542;2022-12-29T12:54:23;4.53;;;2.40;;
462;SDS011;218;51.902;9.542;2022-12-29T12:57:03;1.97;;;1.83;;
462;SDS011;218;51.902;9.542;2022-12-29T12:59:42;2.17;;;2.07;;
462;SDS011;218;51.902;9.542;2022-12-29T13:02:21;2.57;;;2.37;;
462;SDS011;218;51.902;9.542;2022-12-29T13:04:57;1.60;;;1.50;;
462;SDS011;218;51.902;9.542;2022-12-29T13:07:31;2.30;;;1.93;;
462;SDS011;218;51.902;9.542;2022-12-29T13:10:12;3.10;;;2.80;;
462;SDS011;218;51.902;9.542;2022-12-29T13:12:49;3.00;;;2.50;;
462;SDS011;218;51.902;9.542;2022-12-29T13:15:22;2.17;;;1.70;;
462;SDS011;218;51.902;9.542;2022-12-29T13:17:54;2.43;;;2.03;;
462;SDS011;218;51.902;9.542;2022-12-29T13:20:29;2.50;;;2.30;;
462;SDS011;218;51.902;9.542;2022-12-29T13:23:00;1.83;;;1.73;;
462;SDS011;218;51.902;9.542;2022-12-29T13:25:34;2.97;;;2.33;;
462;SDS011;218;51.902;9.542;2022-12-29T13:28:07;2.63;;;2.00;;
462;SDS011;218;51.902;9.542;2022-12-29T13:30:44;1.90;;;1.80;;
462;SDS011;218;51.902;9.542;2022-12-29T13:33:14;2.30;;;2.10;;
462;SDS011;218;51.902;9.542;2022-12-29T13:35:59;2.20;;;1.80;;
462;SDS011;218;51.902;9.542;2022-12-29T13:38:32;2.63;;;2.13;;
462;SDS011;218;51.902;9.542;2022-12-29T13:41:03;1.80;;;1.67;;
462;SDS011;218;51.902;9.542;2022-12-29T13:43:34;2.53;;;2.10;;
462;SDS011;218;51.902;9.542;2022-12-29T13:46:07;1.97;;;1.60;;
462;SDS011;218;51.902;9.542;2022-12-29T13:48:39;2.17;;;1.97;;
462;SDS011;218;51.902;9.542;2022-12-29T13:51:11;2.40;;;2.20;;
462;SDS011;218;51.902;9.542;2022-12-29T13:53:52;3.00;;;2.00;;
462;SDS011;218;51.902;9.542;2022-12-29T13:56:24;3.93;;;2.10;;
462;SDS011;218;51.902;9.542;2022-12-29T13:58:53;2.83;;;2.23;;
462;SDS011;218;51.902;9.542;2022-12-29T14:01:24;2.43;;;1.93;;
462;SDS011;218;51.902;9.542;2022-12-29T14:03:56;5.40;;;2.57;;
462;SDS011;218;51.902;9.542;2022-12-29T14:06:25;4.40;;;3.20;;
462;SDS011;218;51.902;9.542;2022-12-29T14:08:55;3.90;;;3.60;;
462;SDS011;218;51.902;9.542;2022-12-29T14:11:28;3.60;;;2.77;;
462;SDS011;218;51.902;9.542;2022-12-29T14:13:57;2.57;;;2.37;;
462;SDS011;218;51.902;9.542;2022-12-29T14:16:25;4.03;;;2.70;;
462;SDS011;218;51.902;9.542;2022-12-29T14:18:55;4.50;;;2.97;;
462;SDS011;218;51.902;9.542;2022-12-29T14:21:30;3.43;;;2.37;;
462;SDS011;218;51.902;9.542;2022-12-29T14:24:26;4.80;;;2.20;;
462;SDS011;218;51.902;9.542;2022-12-29T14:26:53;2.80;;;2.60;;
462;SDS011;218;51.902;9.542;2022-12-29T14:32:36;2.33;;;2.03;;
462;SDS011;218;51.902;9.542;2022-12-29T14:37:49;1.97;;;1.70;;
462;SDS011;218;51.902;9.542;2022-12-29T14:43:51;3.03;;;2.43;;
462;SDS011;218;51.902;9.542;2022-12-29T14:46:20;4.40;;;2.50;;
462;SDS011;218;51.902;9.542;2022-12-29T14:48:47;2.20;;;2.00;;
462;SDS011;218;51.902;9.542;2022-12-29T14:51:31;2.60;;;2.40;;
462;SDS011;218;51.902;9.542;2022-12-29T14:54:00;2.27;;;1.93;;
462;SDS011;218;51.902;9.542;2022-12-29T14:56:49;6.23;;;2.33;;
462;SDS011;218;51.902;9.542;2022-12-29T14:59:16;4.27;;;4.00;;
462;SDS011;218;51.902;9.542;2022-12-29T15:01:45;3.20;;;2.40;;
462;SDS011;218;51.902;9.542;2022-12-29T15:04:17;2.17;;;2.07;;
462;SDS011;218;51.902;9.542;2022-12-29T15:06:45;2.40;;;2.20;;
462;SDS011;218;51.902;9.542;2022-12-29T15:09:17;2.20;;;2.00;;
462;SDS011;218;51.902;9.542;2022-12-29T15:11:53;3.47;;;2.30;;
462;SDS011;218;51.902;9.542;2022-12-29T15:14:29;4.13;;;2.07;;
462;SDS011;218;51.902;9.542;2022-12-29T15:16:57;3.40;;;2.30;;
462;SDS011;218;51.902;9.542;2022-12-29T15:19:25;2.90;;;2.47;;
462;SDS011;218;51.902;9.542;2022-12-29T15:21:53;2.20;;;2.10;;
462;SDS011;218;51.902;9.542;2022-12-29T15:24:20;2.80;;;2.40;;
462;SDS011;218;51.902;9.542;2022-12-29T15:26:49;4.00;;;2.60;;
462;SDS011;218;51.902;9.542;2022-12-29T15:29:32;3.00;;;2.70;;
462;SDS011;218;51.902;9.542;2022-12-29T15:32:15;3.23;;;2.30;;
462;SDS011;218;51.902;9.542;2022-12-29T15:34:43;2.73;;;2.50;;
462;SDS011;218;51.902;9.542;2022-12-29T15:37:14;3.43;;;2.77;;
462;SDS011;218;51.902;9.542;2022-12-29T15:39:44;3.00;;;2.50;;
462;SDS011;218;51.902;9.542;2022-12-29T15:42:16;3.53;;;2.60;;
462;SDS011;218;51.902;9.542;2022-12-29T15:44:57;2.70;;;2.40;;
462;SDS011;218;51.902;9.542;2022-12-29T15:47:25;5.17;;;2.93;;
462;SDS011;218;51.902;9.542;2022-12-29T15:50:04;3.87;;;2.90;;
462;SDS011;218;51.902;9.542;2022-12-29T15:52:32;3.23;;;2.77;;
462;SDS011;218;51.902;9.542;2022-12-29T15:55:00;3.47;;;3.00;;
462;SDS011;218;51.902;9.542;2022-12-29T15:57:28;5.57;;;2.70;;
462;SDS011;218;51.902;9.542;2022-12-29T15:59:59;4.87;;;3.60;;
462;SDS011;218;51.902;9.542;2022-12-29T16:02:26;4.50;;;4.00;;
462;SDS011;218;51.902;9.542;2022-12-29T16:04:54;4.63;;;4.20;;
462;SDS011;218;51.902;9.542;2022-12-29T16:07:25;5.20;;;4.80;;
462;SDS011;218;51.902;9.542;2022-12-29T16:09:54;5.17;;;4.70;;
462;SDS011;218;51.902;9.542;2022-12-29T16:12:22;5.77;;;4.60;;
462;SDS011;218;51.902;9.542;2022-12-29T16:14:50;4.93;;;3.87;;
462;SDS011;218;51.902;9.542;2022-12-29T16:17:21;4.30;;;3.73;;
462;SDS011;218;51.902;9.542;2022-12-29T16:19:52;3.03;;;2.77;;